Cannon, Kentucky
Current Conditions -  °F | °C
As of 4:12 AM on Wednesday 22 Oct 2014 (Local Time) from KLOZ Reporting Station
Scattered Clouds Scattered Clouds  
Wind Chill: 44°   Ceiling: Unl
Heat Index: 47°   Visibility: 10mi
Dew Point: 40°   Wind: 7mph
Humidity: 77%   Direction: 360°N
Pressure: 30.14"   Gusts: NA
Location:  36.92°N, 83.85°W
Report Text: KLOZ 220812Z AUTO 36006KT 10SM SCT020 SCT030 08/04 A3014 RMK AO2 T00830044
Loading
Personal Weather Stations






























Interactive Weather Map
Tropical Storm Tracking
New forecast layout! Learn more

10-Day Weather Forecast

Advertisements
Track Severe Weather on mobile